sensor_id;sensor_type;location;lat;lon;timestamp;temperature;humidity
41904;DHT22;27586;51.124;4.182;2023-01-01T00:01:08;14.40;99.90
41904;DHT22;27586;51.124;4.182;2023-01-01T00:03:34;14.30;99.90
41904;DHT22;27586;51.124;4.182;2023-01-01T00:06:11;14.40;99.90
41904;DHT22;27586;51.124;4.182;2023-01-01T00:08:38;14.50;99.90
41904;DHT22;27586;51.124;4.182;2023-01-01T00:11:05;14.40;99.90
41904;DHT22;27586;51.124;4.182;2023-01-01T00:13:31;14.30;99.90
41904;DHT22;27586;51.124;4.182;2023-01-01T00:16:11;14.40;99.90
41904;DHT22;27586;51.124;4.182;2023-01-01T00:18:37;14.40;99.90
41904;DHT22;27586;51.124;4.182;2023-01-01T00:23:33;14.30;99.90
41904;DHT22;27586;51.124;4.182;2023-01-01T00:25:58;14.30;99.90
41904;DHT22;27586;51.124;4.182;2023-01-01T00:28:24;14.30;99.90
41904;DHT22;27586;51.124;4.182;2023-01-01T00:30:50;14.40;99.90
41904;DHT22;27586;51.124;4.182;2023-01-01T00:33:17;14.40;99.90
41904;DHT22;27586;51.124;4.182;2023-01-01T00:35:43;14.40;99.90
41904;DHT22;27586;51.124;4.182;2023-01-01T00:38:09;14.30;99.90
41904;DHT22;27586;51.124;4.182;2023-01-01T00:40:34;14.30;99.90
41904;DHT22;27586;51.124;4.182;2023-01-01T00:43:03;14.30;99.90
41904;DHT22;27586;51.124;4.182;2023-01-01T00:45:29;14.30;99.90
41904;DHT22;27586;51.124;4.182;2023-01-01T00:47:55;14.30;99.90
41904;DHT22;27586;51.124;4.182;2023-01-01T00:50:21;14.30;99.90
41904;DHT22;27586;51.124;4.182;2023-01-01T00:52:47;14.30;99.90
41904;DHT22;27586;51.124;4.182;2023-01-01T00:55:13;14.30;99.90
41904;DHT22;27586;51.124;4.182;2023-01-01T00:57:39;14.30;99.90
41904;DHT22;27586;51.124;4.182;2023-01-01T01:00:05;14.30;99.90
41904;DHT22;27586;51.124;4.182;2023-01-01T01:02:31;14.30;99.90
41904;DHT22;27586;51.124;4.182;2023-01-01T01:04:57;14.30;99.90
41904;DHT22;27586;51.124;4.182;2023-01-01T01:07:22;14.40;99.90
41904;DHT22;27586;51.124;4.182;2023-01-01T01:09:48;14.30;99.90
41904;DHT22;27586;51.124;4.182;2023-01-01T01:12:14;14.30;99.90
41904;DHT22;27586;51.124;4.182;2023-01-01T01:14:39;14.30;99.90
41904;DHT22;27586;51.124;4.182;2023-01-01T01:17:05;14.30;99.90
41904;DHT22;27586;51.124;4.182;2023-01-01T01:19:31;14.30;99.90
41904;DHT22;27586;51.124;4.182;2023-01-01T01:21:56;14.40;99.90
41904;DHT22;27586;51.124;4.182;2023-01-01T01:24:22;14.40;99.90
41904;DHT22;27586;51.124;4.182;2023-01-01T01:26:47;14.30;99.90
41904;DHT22;27586;51.124;4.182;2023-01-01T01:29:13;14.30;99.90
41904;DHT22;27586;51.124;4.182;2023-01-01T01:31:39;14.40;99.90
41904;DHT22;27586;51.124;4.182;2023-01-01T01:34:05;14.30;99.90
41904;DHT22;27586;51.124;4.182;2023-01-01T01:36:30;14.30;99.90
41904;DHT22;27586;51.124;4.182;2023-01-01T01:38:56;14.30;99.90
41904;DHT22;27586;51.124;4.182;2023-01-01T01:41:24;14.40;99.90
41904;DHT22;27586;51.124;4.182;2023-01-01T01:43:55;14.40;99.90
41904;DHT22;27586;51.124;4.182;2023-01-01T01:46:25;14.50;99.90
41904;DHT22;27586;51.124;4.182;2023-01-01T01:48:54;14.40;99.90
41904;DHT22;27586;51.124;4.182;2023-01-01T01:51:29;14.40;99.90
41904;DHT22;27586;51.124;4.182;2023-01-01T01:54:00;14.50;99.90
41904;DHT22;27586;51.124;4.182;2023-01-01T01:56:51;14.50;99.90
41904;DHT22;27586;51.124;4.182;2023-01-01T01:59:19;14.50;99.90
41904;DHT22;27586;51.124;4.182;2023-01-01T02:01:45;14.50;99.90
41904;DHT22;27586;51.124;4.182;2023-01-01T02:04:11;14.50;99.90
41904;DHT22;27586;51.124;4.182;2023-01-01T02:06:37;14.60;99.90
41904;DHT22;27586;51.124;4.182;2023-01-01T02:09:05;14.60;99.90
41904;DHT22;27586;51.124;4.182;2023-01-01T02:11:34;14.60;99.90
41904;DHT22;27586;51.124;4.182;2023-01-01T02:14:01;14.60;99.90
41904;DHT22;27586;51.124;4.182;2023-01-01T02:16:43;14.70;99.90
41904;DHT22;27586;51.124;4.182;2023-01-01T02:19:33;14.70;99.90
41904;DHT22;27586;51.124;4.182;2023-01-01T02:22:20;14.70;99.90
41904;DHT22;27586;51.124;4.182;2023-01-01T02:25:09;14.60;99.90
41904;DHT22;27586;51.124;4.182;2023-01-01T02:30:19;14.50;99.90
41904;DHT22;27586;51.124;4.182;2023-01-01T02:33:05;14.50;99.90
41904;DHT22;27586;51.124;4.182;2023-01-01T02:35:39;14.50;99.90
41904;DHT22;27586;51.124;4.182;2023-01-01T02:40:46;14.50;99.90
41904;DHT22;27586;51.124;4.182;2023-01-01T02:43:13;14.40;99.90
41904;DHT22;27586;51.124;4.182;2023-01-01T02:45:39;14.50;99.90
41904;DHT22;27586;51.124;4.182;2023-01-01T02:48:32;14.50;99.90
41904;DHT22;27586;51.124;4.182;2023-01-01T02:50:52;14.50;99.90
41904;DHT22;27586;51.124;4.182;2023-01-01T02:53:35;14.50;99.90
41904;DHT22;27586;51.124;4.182;2023-01-01T02:58:39;14.50;99.90
41904;DHT22;27586;51.124;4.182;2023-01-01T03:04:08;14.40;99.90
41904;DHT22;27586;51.124;4.182;2023-01-01T03:12:01;14.50;99.90
41904;DHT22;27586;51.124;4.182;2023-01-01T03:19:48;14.60;99.90
41904;DHT22;27586;51.124;4.182;2023-01-01T03:22:16;14.60;99.90
41904;DHT22;27586;51.124;4.182;2023-01-01T03:25:15;14.60;99.90
41904;DHT22;27586;51.124;4.182;2023-01-01T03:27:48;14.60;99.90
41904;DHT22;27586;51.124;4.182;2023-01-01T03:30:16;14.60;99.90
41904;DHT22;27586;51.124;4.182;2023-01-01T03:33:10;14.50;99.90
41904;DHT22;27586;51.124;4.182;2023-01-01T03:38:07;14.60;99.90
41904;DHT22;27586;51.124;4.182;2023-01-01T03:40:36;14.70;99.90
41904;DHT22;27586;51.124;4.182;2023-01-01T03:43:09;14.60;99.90
41904;DHT22;27586;51.124;4.182;2023-01-01T03:45:39;14.60;99.90
41904;DHT22;27586;51.124;4.182;2023-01-01T03:48:07;14.60;99.90
41904;DHT22;27586;51.124;4.182;2023-01-01T03:50:50;14.60;99.90
41904;DHT22;27586;51.124;4.182;2023-01-01T03:53:39;14.60;99.90
41904;DHT22;27586;51.124;4.182;2023-01-01T03:56:38;14.60;99.90
41904;DHT22;27586;51.124;4.182;2023-01-01T03:59:20;14.50;99.90
41904;DHT22;27586;51.124;4.182;2023-01-01T04:01:52;14.50;99.90
41904;DHT22;27586;51.124;4.182;2023-01-01T04:04:21;14.40;99.90
41904;DHT22;27586;51.124;4.182;2023-01-01T04:06:47;14.50;99.90
41904;DHT22;27586;51.124;4.182;2023-01-01T04:09:16;14.50;99.90
41904;DHT22;27586;51.124;4.182;2023-01-01T04:11:44;14.50;99.90
41904;DHT22;27586;51.124;4.182;2023-01-01T04:14:38;14.40;99.90
41904;DHT22;27586;51.124;4.182;2023-01-01T04:17:05;14.50;99.90
41904;DHT22;27586;51.124;4.182;2023-01-01T04:19:31;14.40;99.90
41904;DHT22;27586;51.124;4.182;2023-01-01T04:21:58;14.40;99.90
41904;DHT22;27586;51.124;4.182;2023-01-01T04:24:24;14.40;99.90
41904;DHT22;27586;51.124;4.182;2023-01-01T04:26:51;14.40;99.90
41904;DHT22;27586;51.124;4.182;2023-01-01T04:29:17;14.40;99.90
41904;DHT22;27586;51.124;4.182;2023-01-01T04:31:43;14.40;99.90
41904;DHT22;27586;51.124;4.182;2023-01-01T04:34:09;14.50;99.90
41904;DHT22;27586;51.124;4.182;2023-01-01T04:36:35;14.50;99.90
41904;DHT22;27586;51.124;4.182;2023-01-01T04:39:01;14.40;99.90
41904;DHT22;27586;51.124;4.182;2023-01-01T04:41:27;14.40;99.90
41904;DHT22;27586;51.124;4.182;2023-01-01T04:43:52;14.30;99.90
41904;DHT22;27586;51.124;4.182;2023-01-01T04:46:19;14.40;99.90
41904;DHT22;27586;51.124;4.182;2023-01-01T04:48:46;14.30;99.90
41904;DHT22;27586;51.124;4.182;2023-01-01T04:51:13;14.30;99.90
41904;DHT22;27586;51.124;4.182;2023-01-01T04:53:39;14.30;99.90
41904;DHT22;27586;51.124;4.182;2023-01-01T04:56:11;14.30;99.90
41904;DHT22;27586;51.124;4.182;2023-01-01T04:58:38;14.30;99.90
41904;DHT22;27586;51.124;4.182;2023-01-01T05:01:05;14.20;99.90
41904;DHT22;27586;51.124;4.182;2023-01-01T05:03:31;14.30;99.90
41904;DHT22;27586;51.124;4.182;2023-01-01T05:06:02;14.30;99.90
41904;DHT22;27586;51.124;4.182;2023-01-01T05:08:36;14.30;99.90
41904;DHT22;27586;51.124;4.182;2023-01-01T05:11:04;14.10;99.90
41904;DHT22;27586;51.124;4.182;2023-01-01T05:13:30;14.10;99.90
41904;DHT22;27586;51.124;4.182;2023-01-01T05:15:56;14.00;99.90
41904;DHT22;27586;51.124;4.182;2023-01-01T05:18:21;13.90;99.90
41904;DHT22;27586;51.124;4.182;2023-01-01T05:20:47;13.90;99.90
41904;DHT22;27586;51.124;4.182;2023-01-01T05:23:15;13.80;99.90
41904;DHT22;27586;51.124;4.182;2023-01-01T05:25:41;13.80;99.90
41904;DHT22;27586;51.124;4.182;2023-01-01T05:28:07;13.60;99.90
41904;DHT22;27586;51.124;4.182;2023-01-01T05:30:32;13.50;99.90
41904;DHT22;27586;51.124;4.182;2023-01-01T05:32:58;13.40;99.90
41904;DHT22;27586;51.124;4.182;2023-01-01T05:35:24;13.20;99.90
41904;DHT22;27586;51.124;4.182;2023-01-01T05:37:49;13.10;99.90
41904;DHT22;27586;51.124;4.182;2023-01-01T05:40:16;12.90;99.90
41904;DHT22;27586;51.124;4.182;2023-01-01T05:42:42;12.90;99.90
41904;DHT22;27586;51.124;4.182;2023-01-01T05:45:08;12.90;99.90
41904;DHT22;27586;51.124;4.182;2023-01-01T05:47:33;12.90;99.90
41904;DHT22;27586;51.124;4.182;2023-01-01T05:49:59;12.70;99.90
41904;DHT22;27586;51.124;4.182;2023-01-01T05:52:25;12.70;99.90
41904;DHT22;27586;51.124;4.182;2023-01-01T05:54:50;12.60;99.90
41904;DHT22;27586;51.124;4.182;2023-01-01T05:57:16;12.40;99.90
41904;DHT22;27586;51.124;4.182;2023-01-01T05:59:41;12.30;99.90
41904;DHT22;27586;51.124;4.182;2023-01-01T06:02:10;12.40;99.90
41904;DHT22;27586;51.124;4.182;2023-01-01T06:04:36;12.50;99.90
41904;DHT22;27586;51.124;4.182;2023-01-01T06:07:01;12.50;99.90
41904;DHT22;27586;51.124;4.182;2023-01-01T06:09:27;12.40;99.90
41904;DHT22;27586;51.124;4.182;2023-01-01T06:11:53;12.30;99.90
41904;DHT22;27586;51.124;4.182;2023-01-01T06:14:18;12.20;99.90
41904;DHT22;27586;51.124;4.182;2023-01-01T06:16:44;12.20;99.90
41904;DHT22;27586;51.124;4.182;2023-01-01T06:19:10;12.10;99.90
41904;DHT22;27586;51.124;4.182;2023-01-01T06:21:35;12.20;99.90
41904;DHT22;27586;51.124;4.182;2023-01-01T06:24:01;12.10;99.90
41904;DHT22;27586;51.124;4.182;2023-01-01T06:26:29;12.00;99.90
41904;DHT22;27586;51.124;4.182;2023-01-01T06:28:59;12.00;99.90
41904;DHT22;27586;51.124;4.182;2023-01-01T06:31:26;12.00;99.90
41904;DHT22;27586;51.124;4.182;2023-01-01T06:33:52;12.00;99.90
41904;DHT22;27586;51.124;4.182;2023-01-01T06:36:20;12.20;99.90
41904;DHT22;27586;51.124;4.182;2023-01-01T06:38:48;12.10;99.90
41904;DHT22;27586;51.124;4.182;2023-01-01T06:41:16;12.10;99.90
41904;DHT22;27586;51.124;4.182;2023-01-01T06:43:43;12.00;99.90
41904;DHT22;27586;51.124;4.182;2023-01-01T06:48:54;12.10;99.90
41904;DHT22;27586;51.124;4.182;2023-01-01T06:51:22;12.10;99.90
41904;DHT22;27586;51.124;4.182;2023-01-01T06:53:48;12.10;99.90
41904;DHT22;27586;51.124;4.182;2023-01-01T06:56:15;12.10;99.90
41904;DHT22;27586;51.124;4.182;2023-01-01T06:58:41;12.20;99.90
41904;DHT22;27586;51.124;4.182;2023-01-01T07:01:18;12.20;99.90
41904;DHT22;27586;51.124;4.182;2023-01-01T07:03:50;12.20;99.90
41904;DHT22;27586;51.124;4.182;2023-01-01T07:06:16;12.20;99.90
41904;DHT22;27586;51.124;4.182;2023-01-01T07:08:42;12.20;99.90
41904;DHT22;27586;51.124;4.182;2023-01-01T07:11:07;12.20;99.90
41904;DHT22;27586;51.124;4.182;2023-01-01T07:13:33;12.20;99.90
41904;DHT22;27586;51.124;4.182;2023-01-01T07:15:59;12.20;99.90
41904;DHT22;27586;51.124;4.182;2023-01-01T07:18:25;12.10;99.90
41904;DHT22;27586;51.124;4.182;2023-01-01T07:20:58;12.20;99.90
41904;DHT22;27586;51.124;4.182;2023-01-01T07:23:25;12.30;99.90
41904;DHT22;27586;51.124;4.182;2023-01-01T07:25:52;12.40;99.90
41904;DHT22;27586;51.124;4.182;2023-01-01T07:28:21;12.40;99.90
41904;DHT22;27586;51.124;4.182;2023-01-01T07:30:47;12.30;99.90
41904;DHT22;27586;51.124;4.182;2023-01-01T07:33:16;12.30;99.90
41904;DHT22;27586;51.124;4.182;2023-01-01T07:35:41;12.30;99.90
41904;DHT22;27586;51.124;4.182;2023-01-01T07:38:09;12.30;99.90
41904;DHT22;27586;51.124;4.182;2023-01-01T07:40:35;12.30;99.90
41904;DHT22;27586;51.124;4.182;2023-01-01T07:43:01;12.20;99.90
41904;DHT22;27586;51.124;4.182;2023-01-01T07:45:26;12.20;99.90
41904;DHT22;27586;51.124;4.182;2023-01-01T07:47:54;12.30;99.90
41904;DHT22;27586;51.124;4.182;2023-01-01T07:50:21;12.30;99.90
41904;DHT22;27586;51.124;4.182;2023-01-01T07:52:47;12.30;99.90
41904;DHT22;27586;51.124;4.182;2023-01-01T07:55:14;12.30;99.90
41904;DHT22;27586;51.124;4.182;2023-01-01T07:57:41;12.30;99.90
41904;DHT22;27586;51.124;4.182;2023-01-01T08:00:08;12.30;99.90
41904;DHT22;27586;51.124;4.182;2023-01-01T08:02:35;12.40;99.90
41904;DHT22;27586;51.124;4.182;2023-01-01T08:05:00;12.30;99.90
41904;DHT22;27586;51.124;4.182;2023-01-01T08:07:26;12.40;99.90
41904;DHT22;27586;51.124;4.182;2023-01-01T08:09:52;12.40;99.90
41904;DHT22;27586;51.124;4.182;2023-01-01T08:12:17;12.20;99.90
41904;DHT22;27586;51.124;4.182;2023-01-01T08:14:43;12.20;99.90
41904;DHT22;27586;51.124;4.182;2023-01-01T08:17:12;12.10;99.90
41904;DHT22;27586;51.124;4.182;2023-01-01T08:19:37;12.20;99.90
41904;DHT22;27586;51.124;4.182;2023-01-01T08:22:03;12.10;99.90
41904;DHT22;27586;51.124;4.182;2023-01-01T08:24:28;12.10;99.90
41904;DHT22;27586;51.124;4.182;2023-01-01T08:26:54;12.00;99.90
41904;DHT22;27586;51.124;4.182;2023-01-01T08:29:20;12.10;99.90
41904;DHT22;27586;51.124;4.182;2023-01-01T08:31:46;12.10;99.90
41904;DHT22;27586;51.124;4.182;2023-01-01T08:34:11;12.10;99.90
41904;DHT22;27586;51.124;4.182;2023-01-01T08:36:37;12.10;99.90
41904;DHT22;27586;51.124;4.182;2023-01-01T08:39:05;12.10;99.90
41904;DHT22;27586;51.124;4.182;2023-01-01T08:41:31;12.10;99.90
41904;DHT22;27586;51.124;4.182;2023-01-01T08:43:57;12.00;99.90
41904;DHT22;27586;51.124;4.182;2023-01-01T08:46:23;12.00;99.90
41904;DHT22;27586;51.124;4.182;2023-01-01T08:48:48;12.10;99.90
41904;DHT22;27586;51.124;4.182;2023-01-01T08:51:14;12.00;99.90
41904;DHT22;27586;51.124;4.182;2023-01-01T08:53:40;12.00;99.90
41904;DHT22;27586;51.124;4.182;2023-01-01T08:56:10;12.00;99.90
41904;DHT22;27586;51.124;4.182;2023-01-01T08:58:38;11.90;99.90
41904;DHT22;27586;51.124;4.182;2023-01-01T09:01:04;12.00;99.90
41904;DHT22;27586;51.124;4.182;2023-01-01T09:03:30;12.00;99.90
41904;DHT22;27586;51.124;4.182;2023-01-01T09:05:59;12.10;99.90
41904;DHT22;27586;51.124;4.182;2023-01-01T09:08:25;12.00;99.90
41904;DHT22;27586;51.124;4.182;2023-01-01T09:10:51;12.00;99.90
41904;DHT22;27586;51.124;4.182;2023-01-01T09:13:20;12.10;99.90
41904;DHT22;27586;51.124;4.182;2023-01-01T09:15:46;12.00;99.90
41904;DHT22;27586;51.124;4.182;2023-01-01T09:18:12;12.00;99.90
41904;DHT22;27586;51.124;4.182;2023-01-01T09:20:38;12.00;99.90
41904;DHT22;27586;51.124;4.182;2023-01-01T09:23:03;12.10;99.90
41904;DHT22;27586;51.124;4.182;2023-01-01T09:25:30;12.10;99.90
41904;DHT22;27586;51.124;4.182;2023-01-01T09:27:57;12.10;99.90
41904;DHT22;27586;51.124;4.182;2023-01-01T09:30:23;12.20;99.90
41904;DHT22;27586;51.124;4.182;2023-01-01T09:32:48;12.20;99.90
41904;DHT22;27586;51.124;4.182;2023-01-01T09:35:14;12.10;99.90
41904;DHT22;27586;51.124;4.182;2023-01-01T09:37:40;12.20;99.90
41904;DHT22;27586;51.124;4.182;2023-01-01T09:40:06;12.30;99.90
41904;DHT22;27586;51.124;4.182;2023-01-01T09:42:43;12.20;99.90
41904;DHT22;27586;51.124;4.182;2023-01-01T09:47:58;12.20;99.90
41904;DHT22;27586;51.124;4.182;2023-01-01T09:50:42;12.20;99.90
41904;DHT22;27586;51.124;4.182;2023-01-01T09:53:16;12.40;99.90
41904;DHT22;27586;51.124;4.182;2023-01-01T09:55:54;12.30;99.90
41904;DHT22;27586;51.124;4.182;2023-01-01T09:58:24;12.30;99.90
41904;DHT22;27586;51.124;4.182;2023-01-01T10:00:53;12.30;99.90
41904;DHT22;27586;51.124;4.182;2023-01-01T10:06:28;12.50;99.90
41904;DHT22;27586;51.124;4.182;2023-01-01T10:14:35;12.50;99.90
41904;DHT22;27586;51.124;4.182;2023-01-01T10:19:42;12.70;99.90
41904;DHT22;27586;51.124;4.182;2023-01-01T10:22:41;12.70;99.90
41904;DHT22;27586;51.124;4.182;2023-01-01T10:25:19;12.80;99.90
41904;DHT22;27586;51.124;4.182;2023-01-01T10:27:59;12.80;99.90
41904;DHT22;27586;51.124;4.182;2023-01-01T10:30:28;12.90;99.90
41904;DHT22;27586;51.124;4.182;2023-01-01T10:32:55;12.90;99.90
41904;DHT22;27586;51.124;4.182;2023-01-01T10:35:33;12.80;99.90
41904;DHT22;27586;51.124;4.182;2023-01-01T10:38:00;12.90;99.90
41904;DHT22;27586;51.124;4.182;2023-01-01T10:40:28;13.10;99.90
41904;DHT22;27586;51.124;4.182;2023-01-01T10:42:59;13.20;99.90
41904;DHT22;27586;51.124;4.182;2023-01-01T10:45:33;13.30;99.90
41904;DHT22;27586;51.124;4.182;2023-01-01T10:56:04;13.70;99.90
41904;DHT22;27586;51.124;4.182;2023-01-01T10:58:53;13.80;99.90
41904;DHT22;27586;51.124;4.182;2023-01-01T11:01:28;13.90;99.90
41904;DHT22;27586;51.124;4.182;2023-01-01T11:06:42;13.90;99.90
41904;DHT22;27586;51.124;4.182;2023-01-01T11:09:25;13.90;99.90
41904;DHT22;27586;51.124;4.182;2023-01-01T11:11:59;14.00;99.90
41904;DHT22;27586;51.124;4.182;2023-01-01T11:14:28;14.00;99.90
41904;DHT22;27586;51.124;4.182;2023-01-01T11:16:55;14.00;99.90
41904;DHT22;27586;51.124;4.182;2023-01-01T11:19:25;13.90;99.90
41904;DHT22;27586;51.124;4.182;2023-01-01T11:21:52;13.90;99.90
41904;DHT22;27586;51.124;4.182;2023-01-01T11:24:24;13.90;99.90
41904;DHT22;27586;51.124;4.182;2023-01-01T11:26:51;13.90;99.90
41904;DHT22;27586;51.124;4.182;2023-01-01T11:29:23;13.90;99.90
41904;DHT22;27586;51.124;4.182;2023-01-01T11:31:50;14.00;99.90
41904;DHT22;27586;51.124;4.182;2023-01-01T11:34:39;14.00;99.90
41904;DHT22;27586;51.124;4.182;2023-01-01T11:37:25;14.10;99.90
41904;DHT22;27586;51.124;4.182;2023-01-01T11:39:54;14.10;99.90
41904;DHT22;27586;51.124;4.182;2023-01-01T11:42:29;14.10;99.90
41904;DHT22;27586;51.124;4.182;2023-01-01T11:45:02;14.10;99.90
41904;DHT22;27586;51.124;4.182;2023-01-01T11:52:39;14.10;99.90
41904;DHT22;27586;51.124;4.182;2023-01-01T12:00:39;14.10;99.90
41904;DHT22;27586;51.124;4.182;2023-01-01T12:05:48;14.00;99.90
41904;DHT22;27586;51.124;4.182;2023-01-01T12:11:04;14.00;99.90
41904;DHT22;27586;51.124;4.182;2023-01-01T12:13:36;13.90;99.90
41904;DHT22;27586;51.124;4.182;2023-01-01T12:16:27;14.00;99.90
41904;DHT22;27586;51.124;4.182;2023-01-01T12:19:15;14.10;99.90
41904;DHT22;27586;51.124;4.182;2023-01-01T12:21:45;14.00;99.90
41904;DHT22;27586;51.124;4.182;2023-01-01T12:24:13;14.00;99.90
41904;DHT22;27586;51.124;4.182;2023-01-01T12:27:04;14.00;99.90
41904;DHT22;27586;51.124;4.182;2023-01-01T12:29:43;14.00;99.90
41904;DHT22;27586;51.124;4.182;2023-01-01T12:32:34;14.00;99.90
41904;DHT22;27586;51.124;4.182;2023-01-01T12:43:10;14.20;99.90
41904;DHT22;27586;51.124;4.182;2023-01-01T12:46:22;14.20;99.90
41904;DHT22;27586;51.124;4.182;2023-01-01T12:51:37;14.20;99.90
41904;DHT22;27586;51.124;4.182;2023-01-01T12:59:48;14.40;99.90
41904;DHT22;27586;51.124;4.182;2023-01-01T13:02:27;14.20;99.90
41904;DHT22;27586;51.124;4.182;2023-01-01T13:04:59;14.30;99.90
41904;DHT22;27586;51.124;4.182;2023-01-01T13:07:30;14.30;99.90
41904;DHT22;27586;51.124;4.182;2023-01-01T13:10:18;14.30;99.90
41904;DHT22;27586;51.124;4.182;2023-01-01T13:12:48;14.30;99.90
41904;DHT22;27586;51.124;4.182;2023-01-01T13:18:06;14.30;99.90
41904;DHT22;27586;51.124;4.182;2023-01-01T13:20:35;14.30;99.90
41904;DHT22;27586;51.124;4.182;2023-01-01T13:23:03;14.30;99.90
41904;DHT22;27586;51.124;4.182;2023-01-01T13:25:29;14.20;99.90
41904;DHT22;27586;51.124;4.182;2023-01-01T13:35:40;14.30;99.90
41904;DHT22;27586;51.124;4.182;2023-01-01T13:39:10;14.30;99.90
41904;DHT22;27586;51.124;4.182;2023-01-01T13:41:43;14.30;99.90
41904;DHT22;27586;51.124;4.182;2023-01-01T13:44:10;14.10;99.90
41904;DHT22;27586;51.124;4.182;2023-01-01T14:03:15;14.00;99.90
41904;DHT22;27586;51.124;4.182;2023-01-01T14:05:48;14.00;99.90
41904;DHT22;27586;51.124;4.182;2023-01-01T14:08:36;14.00;99.90
41904;DHT22;27586;51.124;4.182;2023-01-01T14:11:16;13.90;99.90
41904;DHT22;27586;51.124;4.182;2023-01-01T14:13:42;13.80;99.90
41904;DHT22;27586;51.124;4.182;2023-01-01T14:16:09;13.80;99.90
41904;DHT22;27586;51.124;4.182;2023-01-01T14:18:56;13.80;99.90
41904;DHT22;27586;51.124;4.182;2023-01-01T14:21:26;13.90;99.90
41904;DHT22;27586;51.124;4.182;2023-01-01T14:24:06;13.80;99.90
41904;DHT22;27586;51.124;4.182;2023-01-01T14:26:38;13.80;99.90
41904;DHT22;27586;51.124;4.182;2023-01-01T14:29:08;13.80;99.90
41904;DHT22;27586;51.124;4.182;2023-01-01T14:31:39;13.80;99.90
41904;DHT22;27586;51.124;4.182;2023-01-01T14:36:52;13.80;99.90
41904;DHT22;27586;51.124;4.182;2023-01-01T14:39:28;13.70;99.90
41904;DHT22;27586;51.124;4.182;2023-01-01T14:42:01;13.60;99.90
41904;DHT22;27586;51.124;4.182;2023-01-01T14:44:33;13.50;99.90
41904;DHT22;27586;51.124;4.182;2023-01-01T14:47:00;13.40;99.90
41904;DHT22;27586;51.124;4.182;2023-01-01T14:49:29;13.60;99.90
41904;DHT22;27586;51.124;4.182;2023-01-01T14:52:00;13.50;99.90
41904;DHT22;27586;51.124;4.182;2023-01-01T14:54:36;13.50;99.90
41904;DHT22;27586;51.124;4.182;2023-01-01T14:57:02;13.40;99.90
41904;DHT22;27586;51.124;4.182;2023-01-01T14:59:33;13.40;99.90
41904;DHT22;27586;51.124;4.182;2023-01-01T15:02:18;13.40;99.90
41904;DHT22;27586;51.124;4.182;2023-01-01T15:04:44;13.50;99.90
41904;DHT22;27586;51.124;4.182;2023-01-01T15:07:39;13.40;99.90
41904;DHT22;27586;51.124;4.182;2023-01-01T15:10:07;13.40;99.90
41904;DHT22;27586;51.124;4.182;2023-01-01T15:12:36;13.40;99.90
41904;DHT22;27586;51.124;4.182;2023-01-01T15:15:04;13.40;99.90
41904;DHT22;27586;51.124;4.182;2023-01-01T15:17:44;13.30;99.90
41904;DHT22;27586;51.124;4.182;2023-01-01T15:20:21;13.30;99.90
41904;DHT22;27586;51.124;4.182;2023-01-01T15:22:48;13.30;99.90
41904;DHT22;27586;51.124;4.182;2023-01-01T15:25:16;13.20;99.90
41904;DHT22;27586;51.124;4.182;2023-01-01T15:27:56;13.30;99.90
41904;DHT22;27586;51.124;4.182;2023-01-01T15:30:27;13.40;99.90
41904;DHT22;27586;51.124;4.182;2023-01-01T15:32:55;13.30;99.90
41904;DHT22;27586;51.124;4.182;2023-01-01T15:35:32;13.30;99.90
41904;DHT22;27586;51.124;4.182;2023-01-01T15:38:01;13.30;99.90
41904;DHT22;27586;51.124;4.182;2023-01-01T15:47:53;13.20;99.90
41904;DHT22;27586;51.124;4.182;2023-01-01T15:50:28;13.20;99.90
41904;DHT22;27586;51.124;4.182;2023-01-01T15:53:00;13.20;99.90
41904;DHT22;27586;51.124;4.182;2023-01-01T15:55:32;13.20;99.90
41904;DHT22;27586;51.124;4.182;2023-01-01T15:57:59;13.20;99.90
41904;DHT22;27586;51.124;4.182;2023-01-01T16:00:30;13.30;99.90
41904;DHT22;27586;51.124;4.182;2023-01-01T16:03:02;13.30;99.90
41904;DHT22;27586;51.124;4.182;2023-01-01T16:05:46;13.20;99.90
41904;DHT22;27586;51.124;4.182;2023-01-01T16:08:12;13.20;99.90
41904;DHT22;27586;51.124;4.182;2023-01-01T16:10:37;13.20;99.90
41904;DHT22;27586;51.124;4.182;2023-01-01T16:13:03;13.10;99.90
41904;DHT22;27586;51.124;4.182;2023-01-01T16:15:29;13.00;99.90
41904;DHT22;27586;51.124;4.182;2023-01-01T16:17:55;13.00;99.90
41904;DHT22;27586;51.124;4.182;2023-01-01T16:20:20;13.00;99.90
41904;DHT22;27586;51.124;4.182;2023-01-01T16:22:47;12.90;99.90
41904;DHT22;27586;51.124;4.182;2023-01-01T16:25:18;12.90;99.90
41904;DHT22;27586;51.124;4.182;2023-01-01T16:27:44;12.90;99.90
41904;DHT22;27586;51.124;4.182;2023-01-01T16:30:11;12.80;99.90
41904;DHT22;27586;51.124;4.182;2023-01-01T16:32:38;12.80;99.90
41904;DHT22;27586;51.124;4.182;2023-01-01T16:35:05;12.90;99.90
41904;DHT22;27586;51.124;4.182;2023-01-01T16:37:31;12.80;99.90
41904;DHT22;27586;51.124;4.182;2023-01-01T16:39:57;12.90;99.90
41904;DHT22;27586;51.124;4.182;2023-01-01T16:42:23;12.90;99.90
41904;DHT22;27586;51.124;4.182;2023-01-01T16:44:49;12.90;99.90
41904;DHT22;27586;51.124;4.182;2023-01-01T16:47:15;12.80;99.90
41904;DHT22;27586;51.124;4.182;2023-01-01T16:49:41;12.80;99.90
41904;DHT22;27586;51.124;4.182;2023-01-01T16:52:06;12.80;99.90
41904;DHT22;27586;51.124;4.182;2023-01-01T16:54:32;12.80;99.90
41904;DHT22;27586;51.124;4.182;2023-01-01T16:56:59;12.80;99.90
41904;DHT22;27586;51.124;4.182;2023-01-01T16:59:24;12.70;99.90
41904;DHT22;27586;51.124;4.182;2023-01-01T17:01:50;12.70;99.90
41904;DHT22;27586;51.124;4.182;2023-01-01T17:04:16;12.70;99.90
41904;DHT22;27586;51.124;4.182;2023-01-01T17:06:41;12.60;99.90
41904;DHT22;27586;51.124;4.182;2023-01-01T17:09:07;12.70;99.90
41904;DHT22;27586;51.124;4.182;2023-01-01T17:11:33;12.70;99.90
41904;DHT22;27586;51.124;4.182;2023-01-01T17:13:59;12.60;99.90
41904;DHT22;27586;51.124;4.182;2023-01-01T17:16:27;12.60;99.90
41904;DHT22;27586;51.124;4.182;2023-01-01T17:18:54;12.60;99.90
41904;DHT22;27586;51.124;4.182;2023-01-01T17:21:20;12.70;99.90
41904;DHT22;27586;51.124;4.182;2023-01-01T17:23:47;12.70;99.90
41904;DHT22;27586;51.124;4.182;2023-01-01T17:26:21;12.60;99.90
41904;DHT22;27586;51.124;4.182;2023-01-01T17:28:48;12.60;99.90
41904;DHT22;27586;51.124;4.182;2023-01-01T17:31:16;12.60;99.90
41904;DHT22;27586;51.124;4.182;2023-01-01T17:33:44;12.60;99.90
41904;DHT22;27586;51.124;4.182;2023-01-01T17:36:10;12.70;99.90
41904;DHT22;27586;51.124;4.182;2023-01-01T17:38:37;12.60;99.90
41904;DHT22;27586;51.124;4.182;2023-01-01T17:41:05;12.60;99.90
41904;DHT22;27586;51.124;4.182;2023-01-01T17:43:37;12.60;99.90
41904;DHT22;27586;51.124;4.182;2023-01-01T17:46:15;12.70;99.90
41904;DHT22;27586;51.124;4.182;2023-01-01T17:48:42;12.70;99.90
41904;DHT22;27586;51.124;4.182;2023-01-01T17:51:08;12.60;99.90